createdAt,value
2023-03-11T02:10:21.202Z,4.20
2023-03-11T02:27:27.872Z,6.38
2023-03-11T02:31:34.075Z,4.90
2023-03-11T02:35:54.134Z,3.08
2023-03-11T02:38:23.976Z,3.53
2023-03-11T02:44:30.674Z,3.17
2023-03-11T02:47:02.068Z,3.20
2023-03-11T02:49:32.592Z,3.10
2023-03-11T02:52:02.046Z,3.20
2023-03-11T02:54:32.235Z,3.33
2023-03-11T02:57:01.926Z,3.20
2023-03-11T02:59:30.880Z,5.55
2023-03-11T03:02:02.164Z,3.80
2023-03-11T03:04:32.012Z,3.40
2023-03-11T03:07:01.918Z,3.63
2023-03-11T03:09:33.250Z,3.70
2023-03-11T03:12:02.564Z,4.18
2023-03-11T03:14:33.049Z,3.73
2023-03-11T03:17:02.097Z,3.88
2023-03-11T03:19:31.109Z,5.25
2023-03-11T03:22:00.181Z,4.75
2023-03-11T03:24:29.600Z,9.63
2023-03-11T03:26:59.047Z,8.30
2023-03-11T03:29:27.969Z,5.60
2023-03-11T03:31:57.758Z,4.47
2023-03-11T03:34:26.745Z,4.35
2023-03-11T03:36:55.935Z,4.50
2023-03-11T03:39:24.861Z,4.82
2023-03-11T03:41:54.944Z,7.93
2023-03-11T03:44:26.231Z,4.53
2023-03-11T03:46:57.037Z,4.57
2023-03-11T03:49:26.358Z,4.57
2023-03-11T03:51:55.854Z,4.75
2023-03-11T03:54:33.037Z,4.28
2023-03-11T03:57:05.456Z,4.40
2023-03-11T03:59:40.660Z,5.35
2023-03-11T04:02:09.719Z,6.40
2023-03-11T04:04:38.842Z,5.63
2023-03-11T04:07:08.333Z,5.13
2023-03-11T04:09:39.769Z,5.45
2023-03-11T04:12:09.671Z,6.13
2023-03-11T04:14:39.309Z,7.80
2023-03-11T04:17:08.271Z,4.43
2023-03-11T04:19:36.994Z,5.95
2023-03-11T04:22:05.877Z,4.07
2023-03-11T04:24:35.299Z,5.50
2023-03-11T04:27:05.104Z,6.63
2023-03-11T04:29:35.860Z,6.60
2023-03-11T04:32:04.714Z,6.80
2023-03-11T04:34:34.293Z,4.55
2023-03-11T04:37:04.550Z,6.78
2023-03-11T04:39:36.209Z,5.50
2023-03-11T04:42:05.204Z,4.45
2023-03-11T04:44:37.285Z,4.53
2023-03-11T04:47:07.764Z,4.50
2023-03-11T04:49:38.203Z,5.82
2023-03-11T04:52:08.200Z,4.90
2023-03-11T04:54:37.858Z,4.82
2023-03-11T04:57:10.840Z,4.85
2023-03-11T04:59:43.857Z,4.10
2023-03-11T05:02:14.434Z,4.50
2023-03-11T05:04:52.744Z,5.45
2023-03-11T05:07:23.838Z,4.25
2023-03-11T05:09:54.256Z,5.60
2023-03-11T05:12:23.187Z,5.60
2023-03-11T05:14:54.550Z,4.80
2023-03-11T05:17:25.793Z,4.60
2023-03-11T05:19:56.626Z,4.80
2023-03-11T05:22:30.851Z,3.88
2023-03-11T05:25:00.042Z,4.22
2023-03-11T05:27:28.984Z,4.35
2023-03-11T05:29:59.393Z,6.43
2023-03-11T05:32:30.054Z,3.33
2023-03-11T05:34:59.050Z,4.33
2023-03-11T05:37:29.535Z,3.90
2023-03-11T05:39:59.081Z,3.30
2023-03-11T05:42:28.172Z,5.00
2023-03-11T05:44:58.347Z,3.05
2023-03-11T05:47:28.009Z,4.00
2023-03-11T05:49:58.613Z,3.50
2023-03-11T05:52:28.146Z,4.13
2023-03-11T05:54:56.901Z,5.90
2023-03-11T05:57:29.809Z,5.80
2023-03-11T05:59:59.715Z,4.97
2023-03-11T06:02:29.133Z,4.38
2023-03-11T06:04:59.214Z,6.45
2023-03-11T06:07:28.527Z,6.33
2023-03-11T06:09:58.388Z,5.75
2023-03-11T06:12:27.609Z,5.78
2023-03-11T06:15:09.160Z,5.40
2023-03-11T06:17:40.256Z,5.93
2023-03-11T06:20:11.627Z,5.38
2023-03-11T06:22:41.874Z,4.33
2023-03-11T06:25:13.736Z,4.80
2023-03-11T06:27:46.011Z,5.20
2023-03-11T06:30:15.766Z,5.05
2023-03-11T06:32:53.972Z,4.50
2023-03-11T06:35:23.411Z,5.07
2023-03-11T06:37:52.304Z,5.07
2023-03-11T06:40:21.372Z,5.05
2023-03-11T06:42:50.266Z,4.57
2023-03-11T06:45:21.087Z,4.88
2023-03-11T06:47:50.995Z,4.43
2023-03-11T06:50:21.201Z,4.45
2023-03-11T06:52:50.491Z,4.63
2023-03-11T06:55:19.547Z,4.22
2023-03-11T06:57:49.750Z,3.78
2023-03-11T07:00:19.000Z,4.03
2023-03-11T07:02:53.804Z,5.00
2023-03-11T07:05:23.440Z,4.07
2023-03-11T07:07:56.736Z,4.30
2023-03-11T07:10:27.646Z,4.50
2023-03-11T07:12:56.817Z,4.50
2023-03-11T07:15:25.844Z,4.63
2023-03-11T07:17:56.185Z,4.57
2023-03-11T07:20:25.906Z,5.13
2023-03-11T07:22:55.288Z,4.82
2023-03-11T07:25:24.812Z,4.93
2023-03-11T07:27:53.429Z,5.07
2023-03-11T07:30:22.544Z,4.47
2023-03-11T07:32:51.332Z,4.50
2023-03-11T07:35:20.423Z,4.27
2023-03-11T07:37:49.000Z,4.65
2023-03-11T07:40:18.695Z,4.97
2023-03-11T07:42:47.261Z,4.90
2023-03-11T07:45:17.686Z,5.35
2023-03-11T07:47:46.560Z,6.00
2023-03-11T07:50:15.501Z,4.95
2023-03-11T07:52:45.322Z,5.13
2023-03-11T07:55:14.181Z,5.47
2023-03-11T07:57:43.714Z,5.32
2023-03-11T08:00:13.456Z,4.57
2023-03-11T08:02:42.491Z,4.65
2023-03-11T08:05:11.930Z,4.50
2023-03-11T08:07:40.999Z,5.43
2023-03-11T08:10:11.120Z,5.30
2023-03-11T08:12:40.551Z,5.88
2023-03-11T08:15:10.229Z,5.78
2023-03-11T08:17:39.034Z,6.47
2023-03-11T08:20:09.755Z,5.68
2023-03-11T08:22:48.732Z,6.03
2023-03-11T08:25:24.812Z,6.30
2023-03-11T08:27:54.117Z,6.82
2023-03-11T08:30:23.849Z,6.13
2023-03-11T08:32:53.203Z,6.15
2023-03-11T08:35:22.578Z,6.20
2023-03-11T08:37:51.847Z,6.88
2023-03-11T08:40:21.520Z,6.68
2023-03-11T08:42:50.365Z,6.88
2023-03-11T08:45:19.544Z,6.85
2023-03-11T08:47:48.392Z,6.95
2023-03-11T08:50:20.199Z,6.93
2023-03-11T08:52:49.636Z,6.90
2023-03-11T08:55:25.986Z,7.10
2023-03-11T08:57:55.166Z,7.30
2023-03-11T09:00:25.048Z,7.30
2023-03-11T09:02:54.569Z,7.43
2023-03-11T09:05:23.290Z,7.50
2023-03-11T09:07:53.579Z,11.57
2023-03-11T09:10:22.421Z,12.90
2023-03-11T09:12:51.340Z,22.90
2023-03-11T09:15:20.968Z,13.02
2023-03-11T09:17:49.571Z,9.77
2023-03-11T09:20:19.044Z,27.03
2023-03-11T09:22:47.808Z,31.50
2023-03-11T09:25:18.600Z,12.55
2023-03-11T09:27:47.407Z,34.93
2023-03-11T09:30:16.029Z,14.07
2023-03-11T09:32:45.205Z,10.27
2023-03-11T09:35:14.071Z,13.73
2023-03-11T09:37:43.099Z,8.40
2023-03-11T09:40:19.264Z,16.05
2023-03-11T09:43:32.733Z,11.50
2023-03-11T09:46:26.018Z,14.63
2023-03-11T09:49:23.955Z,21.25
2023-03-11T09:52:13.499Z,14.40
2023-03-11T09:54:53.715Z,17.70
2023-03-11T09:57:28.232Z,11.67
2023-03-11T09:59:57.848Z,9.63
2023-03-11T10:02:29.351Z,12.35
2023-03-11T10:05:21.887Z,10.13
2023-03-11T10:08:17.499Z,14.90
2023-03-11T10:10:55.597Z,12.23
2023-03-11T10:13:39.187Z,9.93
2023-03-11T10:16:28.653Z,10.48
2023-03-11T10:19:15.656Z,9.27
2023-03-11T10:22:22.043Z,9.70
2023-03-11T10:25:06.871Z,8.90
2023-03-11T10:28:04.225Z,10.17
2023-03-11T10:30:59.018Z,10.50
2023-03-11T10:33:47.556Z,14.57
2023-03-11T10:36:25.766Z,10.43
2023-03-11T10:38:57.686Z,9.85
2023-03-11T10:41:38.242Z,10.25
2023-03-11T10:44:17.480Z,10.65
2023-03-11T10:46:46.501Z,10.27
2023-03-11T10:49:17.367Z,11.70
2023-03-11T10:51:49.838Z,10.77
2023-03-11T10:54:40.760Z,11.55
2023-03-11T10:57:37.056Z,13.57
2023-03-11T11:00:18.118Z,11.87
2023-03-11T11:02:59.047Z,15.85
2023-03-11T11:05:34.673Z,15.27
2023-03-11T11:08:18.639Z,13.18
2023-03-11T11:10:56.224Z,17.90
2023-03-11T11:13:28.768Z,18.63
2023-03-11T11:16:02.343Z,14.73
2023-03-11T11:18:38.926Z,20.85
2023-03-11T11:21:11.171Z,20.98
2023-03-11T11:23:48.220Z,14.85
2023-03-11T11:26:23.083Z,14.40
2023-03-11T11:29:11.712Z,15.30
2023-03-11T11:31:44.804Z,16.08
2023-03-11T11:34:33.460Z,18.27
2023-03-11T11:37:08.037Z,13.77
2023-03-11T11:39:52.506Z,13.82
2023-03-11T11:42:22.558Z,21.15
2023-03-11T11:45:20.257Z,24.50
2023-03-11T11:47:54.577Z,14.63
2023-03-11T11:50:31.306Z,14.73
2023-03-11T11:53:12.356Z,13.27
2023-03-11T11:55:50.697Z,14.75
2023-03-11T11:58:21.440Z,14.90
2023-03-11T12:01:15.216Z,16.08
2023-03-11T12:04:21.620Z,14.50
2023-03-11T12:07:05.598Z,15.55
2023-03-11T12:10:09.833Z,14.95
2023-03-11T12:13:12.362Z,14.85
2023-03-11T12:16:15.988Z,14.38
2023-03-11T12:18:53.776Z,15.00
2023-03-11T12:21:28.178Z,15.18
2023-03-11T12:24:24.877Z,16.15
2023-03-11T12:26:55.948Z,14.77
2023-03-11T12:29:32.272Z,14.48
2023-03-11T12:32:03.329Z,15.90
2023-03-11T12:34:36.705Z,16.60
2023-03-11T12:37:17.967Z,15.48
2023-03-11T12:39:46.920Z,14.80
2023-03-11T12:42:16.149Z,16.55
2023-03-11T12:44:47.177Z,15.60
2023-03-11T12:47:23.786Z,15.55
2023-03-11T12:49:57.180Z,16.73
2023-03-11T12:52:30.393Z,16.88
2023-03-11T12:55:02.537Z,17.33
2023-03-11T12:58:02.754Z,18.40
2023-03-11T13:00:42.475Z,17.73
2023-03-11T13:03:33.438Z,16.55
2023-03-11T13:06:36.387Z,16.77
2023-03-11T13:09:05.593Z,17.55
2023-03-11T13:11:34.152Z,16.60
2023-03-11T13:14:35.216Z,16.35
2023-03-11T13:17:28.221Z,16.35
2023-03-11T13:20:00.889Z,16.73
2023-03-11T13:23:13.943Z,15.77
2023-03-11T13:25:43.941Z,16.92
2023-03-11T13:28:25.038Z,17.60
2023-03-11T13:31:39.679Z,17.23
2023-03-11T13:34:12.566Z,17.17
2023-03-11T13:37:06.624Z,18.85
2023-03-11T13:39:59.285Z,17.27
2023-03-11T13:42:41.288Z,16.88
2023-03-11T13:45:29.440Z,16.55
2023-03-11T13:48:08.429Z,17.00
2023-03-11T13:50:42.815Z,17.05
2023-03-11T13:53:30.022Z,17.85
2023-03-11T13:55:58.968Z,16.70
2023-03-11T13:58:30.329Z,18.50
2023-03-11T14:01:01.770Z,16.80
2023-03-11T14:03:37.131Z,17.67
2023-03-11T14:06:15.230Z,17.02
2023-03-11T14:08:53.336Z,17.13
2023-03-11T14:11:28.288Z,16.38
2023-03-11T14:13:57.422Z,16.95
2023-03-11T14:16:36.674Z,16.60
2023-03-11T14:19:13.162Z,16.75
2023-03-11T14:21:47.155Z,15.82
2023-03-11T14:24:20.868Z,16.73
2023-03-11T14:26:50.727Z,16.10
2023-03-11T14:29:22.242Z,16.67
2023-03-11T14:31:52.640Z,16.75
2023-03-11T14:34:28.557Z,16.85
2023-03-11T14:37:00.277Z,17.02
2023-03-11T14:39:34.942Z,16.80
2023-03-11T14:42:23.248Z,17.40
2023-03-11T14:44:55.332Z,16.70
2023-03-11T14:48:15.588Z,16.25
2023-03-11T14:50:50.875Z,16.23
2023-03-11T14:53:41.708Z,15.43
2023-03-11T14:56:19.884Z,16.02
2023-03-11T14:59:33.064Z,15.25
2023-03-11T15:02:44.069Z,15.25
2023-03-11T15:05:37.032Z,14.75
2023-03-11T15:08:08.317Z,14.68
2023-03-11T15:10:38.020Z,15.13
2023-03-11T15:13:20.342Z,14.20
2023-03-11T15:15:58.657Z,13.90
2023-03-11T15:18:34.270Z,13.93
2023-03-11T15:21:07.813Z,14.05
2023-03-11T15:23:37.772Z,13.55
2023-03-11T15:26:07.895Z,14.48
2023-03-11T15:28:40.628Z,14.05
2023-03-11T15:31:18.207Z,13.27
2023-03-11T15:33:48.328Z,13.95
2023-03-11T15:36:35.626Z,13.43
2023-03-11T15:39:20.729Z,13.13
2023-03-11T15:42:09.968Z,13.40
2023-03-11T15:44:53.677Z,13.97
2023-03-11T15:47:24.458Z,13.23
2023-03-11T15:49:54.048Z,13.55
2023-03-11T15:52:23.278Z,13.63
2023-03-11T15:54:56.073Z,14.68
2023-03-11T15:57:28.583Z,14.13
2023-03-11T16:00:00.925Z,14.40
2023-03-11T16:02:32.878Z,14.32
2023-03-11T16:05:01.972Z,13.68
2023-03-11T16:07:39.515Z,13.97
2023-03-11T16:10:12.269Z,13.45
2023-03-11T16:12:44.085Z,14.48
2023-03-11T16:15:32.467Z,14.05
2023-03-11T16:18:04.704Z,14.05
2023-03-11T16:20:47.778Z,14.60
2023-03-11T16:23:28.193Z,13.73
2023-03-11T16:26:01.313Z,13.93
2023-03-11T16:28:30.783Z,14.48
2023-03-11T16:31:00.772Z,14.73
2023-03-11T16:33:30.574Z,14.18
2023-03-11T16:35:59.496Z,14.50
2023-03-11T16:38:29.047Z,13.90
2023-03-11T16:41:03.640Z,14.38
2023-03-11T16:43:33.309Z,13.85
2023-03-11T16:46:02.561Z,15.63
2023-03-11T16:48:32.648Z,14.82
2023-03-11T16:51:02.079Z,14.25
2023-03-11T16:53:30.771Z,14.30
2023-03-11T16:56:00.745Z,14.75
2023-03-11T16:58:29.507Z,14.90
2023-03-11T17:00:58.598Z,14.98
2023-03-11T17:03:31.558Z,15.40
2023-03-11T17:06:04.799Z,15.70
2023-03-11T17:08:33.910Z,15.57
2023-03-11T17:11:02.697Z,15.65
2023-03-11T17:13:32.489Z,15.25
2023-03-11T17:16:03.166Z,15.43
2023-03-11T17:18:32.410Z,15.18
2023-03-11T17:21:03.129Z,15.85
2023-03-11T17:23:32.088Z,14.88
2023-03-11T17:26:02.559Z,14.13
2023-03-11T17:28:32.453Z,14.52
2023-03-11T17:31:01.579Z,14.45
2023-03-11T17:33:31.596Z,13.88
2023-03-11T17:36:08.887Z,14.75
2023-03-11T17:38:38.149Z,14.50
2023-03-11T17:41:12.676Z,14.65
2023-03-11T17:43:42.115Z,14.23
2023-03-11T17:46:15.739Z,14.77
2023-03-11T17:48:46.179Z,14.35
2023-03-11T17:51:20.360Z,15.05
2023-03-11T17:53:52.562Z,15.00
2023-03-11T17:56:21.970Z,14.73
2023-03-11T17:58:51.637Z,13.43
2023-03-11T18:01:25.871Z,13.77
2023-03-11T18:03:55.855Z,14.15
2023-03-11T18:06:25.494Z,14.02
2023-03-11T18:08:54.604Z,13.57
2023-03-11T18:11:26.837Z,13.20
2023-03-11T18:13:56.006Z,13.63
2023-03-11T18:16:27.138Z,14.07
2023-03-11T18:18:58.011Z,13.60
2023-03-11T18:21:29.452Z,13.32
2023-03-11T18:24:00.943Z,13.40
2023-03-11T18:26:32.088Z,12.68
2023-03-11T18:29:02.048Z,13.65
2023-03-11T18:31:32.048Z,13.57
2023-03-11T18:34:06.128Z,14.35
2023-03-11T18:36:38.325Z,14.77
2023-03-11T18:39:08.464Z,14.98
2023-03-11T18:41:37.656Z,14.93
2023-03-11T18:44:06.468Z,14.88
2023-03-11T18:46:35.740Z,14.68
2023-03-11T18:49:06.361Z,15.57
2023-03-11T18:51:35.251Z,15.60
2023-03-11T18:54:04.729Z,15.32
2023-03-11T18:56:34.206Z,16.38
2023-03-11T18:59:03.271Z,16.25
2023-03-11T19:01:32.758Z,16.48
2023-03-11T19:04:01.788Z,15.75
2023-03-11T19:06:31.416Z,14.68
2023-03-11T19:09:00.316Z,14.10
2023-03-11T19:11:32.338Z,13.57
2023-03-11T19:14:01.437Z,12.85
2023-03-11T19:16:31.906Z,12.27
2023-03-11T19:19:01.762Z,12.60
2023-03-11T19:21:30.975Z,12.63
2023-03-11T19:24:00.866Z,12.60
2023-03-11T19:26:43.787Z,12.70
2023-03-11T19:29:14.976Z,11.30
2023-03-11T19:31:47.053Z,11.07
2023-03-11T19:34:16.965Z,11.00
2023-03-11T19:36:47.678Z,10.35
2023-03-11T19:39:16.698Z,11.07
2023-03-11T19:41:45.494Z,11.60
2023-03-11T19:44:14.689Z,11.05
2023-03-11T19:46:43.844Z,13.85
2023-03-11T19:49:13.074Z,14.38
2023-03-11T19:51:50.162Z,14.50
2023-03-11T19:54:20.612Z,15.13
2023-03-11T19:56:50.556Z,14.10
2023-03-11T19:59:19.651Z,14.05
2023-03-11T20:01:48.624Z,14.35
2023-03-11T20:04:17.581Z,13.57
2023-03-11T20:06:47.617Z,13.60
2023-03-11T20:09:17.056Z,12.38
2023-03-11T20:11:46.675Z,12.02
2023-03-11T20:14:16.250Z,12.30
2023-03-11T20:16:45.425Z,11.30
2023-03-11T20:19:14.349Z,11.13
2023-03-11T20:21:45.950Z,11.25
2023-03-11T20:24:15.534Z,10.88
2023-03-11T20:26:44.428Z,10.87
2023-03-11T20:29:13.311Z,11.52
2023-03-11T20:31:42.255Z,10.15
2023-03-11T20:34:12.163Z,9.75
2023-03-11T20:36:41.206Z,10.23
2023-03-11T20:39:12.321Z,10.03
2023-03-11T20:41:42.619Z,10.23
2023-03-11T20:44:14.862Z,9.63
2023-03-11T20:46:44.354Z,9.70
2023-03-11T20:49:13.236Z,9.57
2023-03-11T20:51:42.263Z,10.48
2023-03-11T20:54:12.911Z,10.65
2023-03-11T20:56:42.677Z,10.90
2023-03-11T20:59:14.890Z,11.23
2023-03-11T21:01:45.559Z,11.00
2023-03-11T21:04:16.419Z,11.63
2023-03-11T21:06:45.990Z,10.30
2023-03-11T21:09:15.884Z,10.30
2023-03-11T21:11:44.942Z,11.02
2023-03-11T21:14:17.575Z,11.55
2023-03-11T21:16:47.290Z,11.73
2023-03-11T21:19:16.662Z,11.10
2023-03-11T21:21:46.044Z,11.95
2023-03-11T21:24:15.515Z,10.75
2023-03-11T21:26:44.552Z,11.25
2023-03-11T21:29:14.032Z,10.43
2023-03-11T21:31:43.101Z,11.93
2023-03-11T21:34:13.451Z,10.77
2023-03-11T21:36:42.663Z,11.40
2023-03-11T21:39:11.591Z,10.90
2023-03-11T21:41:41.958Z,10.48
2023-03-11T21:44:11.160Z,10.45
2023-03-11T21:46:39.981Z,10.07
2023-03-11T21:49:09.003Z,9.77
2023-03-11T21:51:38.477Z,10.90
2023-03-11T21:54:07.784Z,11.52
2023-03-11T21:56:37.126Z,11.30
2023-03-11T21:59:06.521Z,11.93
2023-03-11T22:01:36.177Z,11.07
2023-03-11T22:04:05.762Z,11.85
2023-03-11T22:06:35.144Z,11.82
2023-03-11T22:09:05.981Z,12.43
2023-03-11T22:11:35.475Z,12.13
2023-03-11T22:14:04.583Z,11.55
2023-03-11T22:16:34.107Z,12.15
2023-03-11T22:19:05.433Z,11.70
2023-03-11T22:21:34.505Z,11.57
2023-03-11T22:24:03.182Z,11.13
2023-03-11T22:26:32.059Z,11.70
2023-03-11T22:29:03.751Z,11.73
2023-03-11T22:31:33.246Z,11.55
2023-03-11T22:34:02.553Z,12.13
2023-03-11T22:36:32.540Z,11.80
2023-03-11T22:39:03.539Z,11.10
2023-03-11T22:41:32.965Z,11.20
2023-03-11T22:44:02.637Z,11.30
2023-03-11T22:46:31.866Z,11.50
2023-03-11T22:49:00.622Z,10.40
2023-03-11T22:51:29.410Z,11.00
2023-03-11T22:53:58.377Z,11.40
2023-03-11T22:56:27.413Z,11.25
2023-03-11T22:58:55.979Z,11.43
2023-03-11T23:01:27.523Z,10.20
2023-03-11T23:03:58.118Z,10.10
2023-03-11T23:06:27.093Z,10.25
2023-03-11T23:08:56.387Z,9.77
2023-03-11T23:11:25.432Z,9.88
2023-03-11T23:13:55.111Z,9.90
